sensor_id;sensor_type;location;lat;lon;timestamp;pressure;altitude;pressure_sealevel;temperature;humidity
57885;BME280;43703;51.060;-0.086;2024-02-26T00:00:44;97937.71;;;5.51;100.00
57885;BME280;43703;51.060;-0.086;2024-02-26T00:03:09;97941.92;;;5.66;100.00
57885;BME280;43703;51.060;-0.086;2024-02-26T00:05:34;97939.98;;;5.75;100.00
57885;BME280;43703;51.060;-0.086;2024-02-26T00:07:59;97940.38;;;5.76;100.00
57885;BME280;43703;51.060;-0.086;2024-02-26T00:10:24;97949.00;;;5.82;100.00
57885;BME280;43703;51.060;-0.086;2024-02-26T00:12:49;97949.99;;;5.63;100.00
57885;BME280;43703;51.060;-0.086;2024-02-26T00:15:15;97948.56;;;5.72;100.00
57885;BME280;43703;51.060;-0.086;2024-02-26T00:17:40;97957.98;;;5.59;100.00
57885;BME280;43703;51.060;-0.086;2024-02-26T00:20:06;97961.53;;;6.06;100.00
57885;BME280;43703;51.060;-0.086;2024-02-26T00:22:30;97963.19;;;5.43;100.00
57885;BME280;43703;51.060;-0.086;2024-02-26T00:24:55;97965.60;;;5.37;100.00
57885;BME280;43703;51.060;-0.086;2024-02-26T00:27:20;97972.80;;;5.51;100.00
57885;BME280;43703;51.060;-0.086;2024-02-26T00:29:45;97967.33;;;5.64;100.00
57885;BME280;43703;51.060;-0.086;2024-02-26T00:32:10;97970.46;;;5.77;100.00
57885;BME280;43703;51.060;-0.086;2024-02-26T00:34:35;97970.54;;;5.61;100.00
57885;BME280;43703;51.060;-0.086;2024-02-26T00:37:01;97979.07;;;5.43;100.00
57885;BME280;43703;51.060;-0.086;2024-02-26T00:39:25;97976.77;;;5.52;100.00
57885;BME280;43703;51.060;-0.086;2024-02-26T00:41:50;97987.41;;;5.52;100.00
57885;BME280;43703;51.060;-0.086;2024-02-26T00:44:15;97993.36;;;5.58;100.00
57885;BME280;43703;51.060;-0.086;2024-02-26T00:46:40;97989.06;;;5.85;100.00
57885;BME280;43703;51.060;-0.086;2024-02-26T00:49:06;97990.35;;;5.78;100.00
57885;BME280;43703;51.060;-0.086;2024-02-26T00:51:31;97993.44;;;5.63;100.00
57885;BME280;43703;51.060;-0.086;2024-02-26T00:53:56;98002.24;;;6.11;100.00
57885;BME280;43703;51.060;-0.086;2024-02-26T00:56:21;98005.74;;;6.24;100.00
57885;BME280;43703;51.060;-0.086;2024-02-26T00:58:46;98006.54;;;5.63;100.00
57885;BME280;43703;51.060;-0.086;2024-02-26T01:01:11;98001.01;;;5.90;100.00
57885;BME280;43703;51.060;-0.086;2024-02-26T01:03:37;98030.30;;;5.87;100.00
57885;BME280;43703;51.060;-0.086;2024-02-26T01:06:03;98013.13;;;6.21;100.00
57885;BME280;43703;51.060;-0.086;2024-02-26T01:08:28;98014.82;;;6.02;100.00
57885;BME280;43703;51.060;-0.086;2024-02-26T01:10:53;98017.91;;;6.18;100.00
57885;BME280;43703;51.060;-0.086;2024-02-26T01:13:19;98025.66;;;6.35;100.00
57885;BME280;43703;51.060;-0.086;2024-02-26T01:15:44;98029.91;;;6.13;100.00
57885;BME280;43703;51.060;-0.086;2024-02-26T01:18:09;98027.16;;;6.00;100.00
57885;BME280;43703;51.060;-0.086;2024-02-26T01:20:34;98035.88;;;5.78;100.00
57885;BME280;43703;51.060;-0.086;2024-02-26T01:22:59;98037.11;;;5.53;100.00
57885;BME280;43703;51.060;-0.086;2024-02-26T01:25:25;98037.84;;;6.13;100.00
57885;BME280;43703;51.060;-0.086;2024-02-26T01:27:50;98042.76;;;6.05;100.00
57885;BME280;43703;51.060;-0.086;2024-02-26T01:30:15;98038.04;;;5.94;100.00
57885;BME280;43703;51.060;-0.086;2024-02-26T01:32:40;98050.02;;;5.79;100.00
57885;BME280;43703;51.060;-0.086;2024-02-26T01:35:06;98041.56;;;5.65;100.00
57885;BME280;43703;51.060;-0.086;2024-02-26T01:37:31;98056.91;;;5.97;100.00
57885;BME280;43703;51.060;-0.086;2024-02-26T01:39:56;98051.19;;;5.61;100.00
57885;BME280;43703;51.060;-0.086;2024-02-26T01:42:21;98060.35;;;5.79;100.00
57885;BME280;43703;51.060;-0.086;2024-02-26T01:44:47;98062.27;;;6.03;100.00
57885;BME280;43703;51.060;-0.086;2024-02-26T01:47:13;98061.00;;;6.05;100.00
57885;BME280;43703;51.060;-0.086;2024-02-26T01:49:38;98078.74;;;6.33;100.00
57885;BME280;43703;51.060;-0.086;2024-02-26T01:52:04;98074.48;;;5.97;100.00
57885;BME280;43703;51.060;-0.086;2024-02-26T01:54:29;98086.04;;;5.51;100.00
57885;BME280;43703;51.060;-0.086;2024-02-26T01:56:54;98090.64;;;5.57;100.00
57885;BME280;43703;51.060;-0.086;2024-02-26T01:59:20;98098.57;;;5.51;100.00
57885;BME280;43703;51.060;-0.086;2024-02-26T02:01:48;98089.28;;;5.61;100.00
57885;BME280;43703;51.060;-0.086;2024-02-26T02:04:10;98097.34;;;5.69;100.00
57885;BME280;43703;51.060;-0.086;2024-02-26T02:06:36;98116.05;;;5.75;100.00
57885;BME280;43703;51.060;-0.086;2024-02-26T02:09:01;98112.53;;;5.78;100.00
57885;BME280;43703;51.060;-0.086;2024-02-26T02:11:26;98116.54;;;5.91;100.00
57885;BME280;43703;51.060;-0.086;2024-02-26T02:13:52;98130.53;;;5.79;100.00
57885;BME280;43703;51.060;-0.086;2024-02-26T02:16:17;98129.88;;;5.99;100.00
57885;BME280;43703;51.060;-0.086;2024-02-26T02:18:43;98119.76;;;6.02;100.00
57885;BME280;43703;51.060;-0.086;2024-02-26T02:21:08;98128.77;;;5.91;100.00
57885;BME280;43703;51.060;-0.086;2024-02-26T02:23:33;98135.11;;;6.23;100.00
57885;BME280;43703;51.060;-0.086;2024-02-26T02:25:59;98142.01;;;5.87;100.00
57885;BME280;43703;51.060;-0.086;2024-02-26T02:28:26;98139.75;;;5.73;100.00
57885;BME280;43703;51.060;-0.086;2024-02-26T02:30:50;98153.00;;;5.94;100.00
57885;BME280;43703;51.060;-0.086;2024-02-26T02:33:15;98155.92;;;6.38;100.00
57885;BME280;43703;51.060;-0.086;2024-02-26T02:35:41;98161.50;;;6.09;100.00
57885;BME280;43703;51.060;-0.086;2024-02-26T02:38:06;98161.76;;;6.08;100.00
57885;BME280;43703;51.060;-0.086;2024-02-26T02:40:31;98156.77;;;6.47;100.00
57885;BME280;43703;51.060;-0.086;2024-02-26T02:42:56;98181.95;;;6.08;100.00
57885;BME280;43703;51.060;-0.086;2024-02-26T02:45:22;98169.41;;;6.33;100.00
57885;BME280;43703;51.060;-0.086;2024-02-26T02:47:47;98173.62;;;6.42;100.00
57885;BME280;43703;51.060;-0.086;2024-02-26T02:50:12;98182.42;;;5.94;100.00
57885;BME280;43703;51.060;-0.086;2024-02-26T02:52:38;98178.64;;;5.74;100.00
57885;BME280;43703;51.060;-0.086;2024-02-26T02:55:04;98188.56;;;6.31;100.00
57885;BME280;43703;51.060;-0.086;2024-02-26T02:57:29;98192.37;;;5.99;100.00
57885;BME280;43703;51.060;-0.086;2024-02-26T02:59:54;98189.70;;;6.12;100.00
57885;BME280;43703;51.060;-0.086;2024-02-26T03:02:20;98213.50;;;6.24;100.00
57885;BME280;43703;51.060;-0.086;2024-02-26T03:04:45;98206.45;;;6.01;100.00
57885;BME280;43703;51.060;-0.086;2024-02-26T03:07:11;98211.06;;;6.20;100.00
57885;BME280;43703;51.060;-0.086;2024-02-26T03:09:36;98219.04;;;6.16;100.00
57885;BME280;43703;51.060;-0.086;2024-02-26T03:12:02;98217.94;;;6.34;100.00
57885;BME280;43703;51.060;-0.086;2024-02-26T03:14:27;98220.69;;;5.67;100.00
57885;BME280;43703;51.060;-0.086;2024-02-26T03:16:54;98227.39;;;5.78;100.00
57885;BME280;43703;51.060;-0.086;2024-02-26T03:19:19;98220.95;;;5.88;100.00
57885;BME280;43703;51.060;-0.086;2024-02-26T03:21:44;98233.01;;;5.65;100.00
57885;BME280;43703;51.060;-0.086;2024-02-26T03:24:09;98235.05;;;5.85;100.00
57885;BME280;43703;51.060;-0.086;2024-02-26T03:26:35;98236.25;;;5.76;100.00
57885;BME280;43703;51.060;-0.086;2024-02-26T03:29:01;98243.37;;;5.55;100.00
57885;BME280;43703;51.060;-0.086;2024-02-26T03:31:26;98255.27;;;5.65;100.00
57885;BME280;43703;51.060;-0.086;2024-02-26T03:33:52;98257.76;;;6.01;100.00
57885;BME280;43703;51.060;-0.086;2024-02-26T03:36:17;98269.17;;;5.53;100.00
57885;BME280;43703;51.060;-0.086;2024-02-26T03:38:42;98264.36;;;5.88;100.00
57885;BME280;43703;51.060;-0.086;2024-02-26T03:41:09;98270.38;;;5.59;100.00
57885;BME280;43703;51.060;-0.086;2024-02-26T03:43:33;98280.66;;;5.76;100.00
57885;BME280;43703;51.060;-0.086;2024-02-26T03:45:58;98291.09;;;5.80;100.00
57885;BME280;43703;51.060;-0.086;2024-02-26T03:48:24;98292.61;;;5.51;100.00
57885;BME280;43703;51.060;-0.086;2024-02-26T03:50:49;98299.99;;;6.11;100.00
57885;BME280;43703;51.060;-0.086;2024-02-26T03:53:15;98293.08;;;5.96;100.00
57885;BME280;43703;51.060;-0.086;2024-02-26T03:55:40;98305.07;;;6.04;100.00
57885;BME280;43703;51.060;-0.086;2024-02-26T03:58:05;98297.75;;;5.80;100.00
57885;BME280;43703;51.060;-0.086;2024-02-26T04:00:30;98315.94;;;5.65;100.00
57885;BME280;43703;51.060;-0.086;2024-02-26T04:02:55;98316.75;;;5.45;100.00
57885;BME280;43703;51.060;-0.086;2024-02-26T04:05:20;98323.72;;;5.82;100.00
57885;BME280;43703;51.060;-0.086;2024-02-26T04:07:46;98328.68;;;5.70;100.00
57885;BME280;43703;51.060;-0.086;2024-02-26T04:10:12;98333.56;;;5.66;100.00
57885;BME280;43703;51.060;-0.086;2024-02-26T04:12:38;98330.09;;;5.70;100.00
57885;BME280;43703;51.060;-0.086;2024-02-26T04:15:05;98336.00;;;5.50;100.00
57885;BME280;43703;51.060;-0.086;2024-02-26T04:17:27;98349.02;;;5.73;100.00
57885;BME280;43703;51.060;-0.086;2024-02-26T04:19:52;98338.15;;;6.16;100.00
57885;BME280;43703;51.060;-0.086;2024-02-26T04:22:17;98355.01;;;5.97;100.00
57885;BME280;43703;51.060;-0.086;2024-02-26T04:24:43;98349.86;;;6.19;100.00
57885;BME280;43703;51.060;-0.086;2024-02-26T04:27:09;98363.52;;;5.77;100.00
57885;BME280;43703;51.060;-0.086;2024-02-26T04:29:34;98359.80;;;5.97;100.00
57885;BME280;43703;51.060;-0.086;2024-02-26T04:31:59;98372.36;;;5.85;100.00
57885;BME280;43703;51.060;-0.086;2024-02-26T04:34:24;98374.04;;;5.72;100.00
57885;BME280;43703;51.060;-0.086;2024-02-26T04:36:50;98373.15;;;5.86;100.00
57885;BME280;43703;51.060;-0.086;2024-02-26T04:39:15;98378.32;;;5.56;100.00
57885;BME280;43703;51.060;-0.086;2024-02-26T04:41:40;98391.45;;;5.73;100.00
57885;BME280;43703;51.060;-0.086;2024-02-26T04:44:05;98400.23;;;6.35;100.00
57885;BME280;43703;51.060;-0.086;2024-02-26T04:46:31;98413.06;;;5.91;100.00
57885;BME280;43703;51.060;-0.086;2024-02-26T04:48:56;98405.99;;;5.62;100.00
57885;BME280;43703;51.060;-0.086;2024-02-26T04:51:21;98418.22;;;5.81;100.00
57885;BME280;43703;51.060;-0.086;2024-02-26T04:53:46;98426.00;;;5.77;100.00
57885;BME280;43703;51.060;-0.086;2024-02-26T04:56:12;98432.35;;;5.86;100.00
57885;BME280;43703;51.060;-0.086;2024-02-26T04:58:37;98428.32;;;5.96;100.00
57885;BME280;43703;51.060;-0.086;2024-02-26T05:01:03;98445.59;;;5.93;100.00
57885;BME280;43703;51.060;-0.086;2024-02-26T05:03:28;98454.09;;;6.51;100.00
57885;BME280;43703;51.060;-0.086;2024-02-26T05:05:53;98475.43;;;5.50;100.00
57885;BME280;43703;51.060;-0.086;2024-02-26T05:08:19;98469.59;;;6.08;100.00
57885;BME280;43703;51.060;-0.086;2024-02-26T05:10:45;98456.83;;;5.94;100.00
57885;BME280;43703;51.060;-0.086;2024-02-26T05:13:09;98481.86;;;6.16;100.00
57885;BME280;43703;51.060;-0.086;2024-02-26T05:15:34;98477.94;;;6.01;100.00
57885;BME280;43703;51.060;-0.086;2024-02-26T05:18:00;98489.83;;;6.21;100.00
57885;BME280;43703;51.060;-0.086;2024-02-26T05:20:25;98501.08;;;6.00;100.00
57885;BME280;43703;51.060;-0.086;2024-02-26T05:22:51;98514.81;;;6.00;100.00
57885;BME280;43703;51.060;-0.086;2024-02-26T05:25:17;98518.92;;;6.04;100.00
57885;BME280;43703;51.060;-0.086;2024-02-26T05:27:43;98521.73;;;6.13;100.00
57885;BME280;43703;51.060;-0.086;2024-02-26T05:30:08;98528.45;;;6.09;100.00
57885;BME280;43703;51.060;-0.086;2024-02-26T05:32:32;98533.22;;;5.97;100.00
57885;BME280;43703;51.060;-0.086;2024-02-26T05:34:58;98532.72;;;6.43;100.00
57885;BME280;43703;51.060;-0.086;2024-02-26T05:37:24;98541.49;;;5.83;100.00
57885;BME280;43703;51.060;-0.086;2024-02-26T05:39:49;98551.78;;;6.12;100.00
57885;BME280;43703;51.060;-0.086;2024-02-26T05:42:14;98568.09;;;6.29;100.00
57885;BME280;43703;51.060;-0.086;2024-02-26T05:44:40;98559.27;;;5.99;100.00
57885;BME280;43703;51.060;-0.086;2024-02-26T05:47:05;98557.38;;;5.84;100.00
57885;BME280;43703;51.060;-0.086;2024-02-26T05:49:30;98581.23;;;6.03;100.00
57885;BME280;43703;51.060;-0.086;2024-02-26T05:51:55;98583.87;;;6.26;100.00
57885;BME280;43703;51.060;-0.086;2024-02-26T05:54:21;98582.20;;;6.20;100.00
57885;BME280;43703;51.060;-0.086;2024-02-26T05:56:46;98582.77;;;6.23;100.00
57885;BME280;43703;51.060;-0.086;2024-02-26T05:59:12;98597.37;;;6.18;100.00
57885;BME280;43703;51.060;-0.086;2024-02-26T06:01:37;98601.04;;;5.95;100.00
57885;BME280;43703;51.060;-0.086;2024-02-26T06:04:03;98608.55;;;5.99;100.00
57885;BME280;43703;51.060;-0.086;2024-02-26T06:06:28;98607.44;;;5.77;100.00
57885;BME280;43703;51.060;-0.086;2024-02-26T06:08:53;98616.34;;;5.89;100.00
57885;BME280;43703;51.060;-0.086;2024-02-26T06:11:18;98621.53;;;6.10;100.00
57885;BME280;43703;51.060;-0.086;2024-02-26T06:13:44;98624.59;;;6.03;100.00
57885;BME280;43703;51.060;-0.086;2024-02-26T06:16:09;98635.98;;;6.11;100.00
57885;BME280;43703;51.060;-0.086;2024-02-26T06:18:34;98633.23;;;5.89;100.00
57885;BME280;43703;51.060;-0.086;2024-02-26T06:20:59;98632.64;;;6.38;100.00
57885;BME280;43703;51.060;-0.086;2024-02-26T06:23:24;98647.12;;;6.31;100.00
57885;BME280;43703;51.060;-0.086;2024-02-26T06:25:49;98643.13;;;5.99;100.00
57885;BME280;43703;51.060;-0.086;2024-02-26T06:28:14;98659.27;;;6.22;100.00
57885;BME280;43703;51.060;-0.086;2024-02-26T06:30:39;98657.86;;;6.07;100.00
57885;BME280;43703;51.060;-0.086;2024-02-26T06:33:05;98664.46;;;5.75;100.00
57885;BME280;43703;51.060;-0.086;2024-02-26T06:35:30;98675.48;;;6.12;100.00
57885;BME280;43703;51.060;-0.086;2024-02-26T06:37:55;98680.81;;;6.03;98.67
57885;BME280;43703;51.060;-0.086;2024-02-26T06:40:20;98699.11;;;6.08;100.00
57885;BME280;43703;51.060;-0.086;2024-02-26T06:42:45;98694.63;;;6.06;100.00
57885;BME280;43703;51.060;-0.086;2024-02-26T06:45:10;98696.94;;;6.26;100.00
57885;BME280;43703;51.060;-0.086;2024-02-26T06:47:35;98713.81;;;6.12;98.29
57885;BME280;43703;51.060;-0.086;2024-02-26T06:50:00;98717.93;;;6.39;100.00
57885;BME280;43703;51.060;-0.086;2024-02-26T06:52:25;98715.19;;;5.65;100.00
57885;BME280;43703;51.060;-0.086;2024-02-26T06:54:50;98729.09;;;5.95;100.00
57885;BME280;43703;51.060;-0.086;2024-02-26T06:57:15;98732.63;;;5.73;100.00
57885;BME280;43703;51.060;-0.086;2024-02-26T06:59:40;98745.89;;;5.96;100.00
57885;BME280;43703;51.060;-0.086;2024-02-26T07:02:05;98756.79;;;5.94;98.90
57885;BME280;43703;51.060;-0.086;2024-02-26T07:04:30;98758.07;;;5.83;100.00
57885;BME280;43703;51.060;-0.086;2024-02-26T07:06:55;98764.63;;;5.65;100.00
57885;BME280;43703;51.060;-0.086;2024-02-26T07:09:20;98773.08;;;5.79;100.00
57885;BME280;43703;51.060;-0.086;2024-02-26T07:11:46;98779.57;;;5.93;100.00
57885;BME280;43703;51.060;-0.086;2024-02-26T07:14:12;98798.99;;;5.86;100.00
57885;BME280;43703;51.060;-0.086;2024-02-26T07:16:36;98787.56;;;5.82;100.00
57885;BME280;43703;51.060;-0.086;2024-02-26T07:19:01;98791.80;;;5.36;100.00
57885;BME280;43703;51.060;-0.086;2024-02-26T07:21:26;98806.03;;;5.94;100.00
57885;BME280;43703;51.060;-0.086;2024-02-26T07:23:52;98806.25;;;5.65;96.16
57885;BME280;43703;51.060;-0.086;2024-02-26T07:26:16;98816.25;;;5.73;96.40
57885;BME280;43703;51.060;-0.086;2024-02-26T07:28:41;98828.76;;;5.77;97.32
57885;BME280;43703;51.060;-0.086;2024-02-26T07:31:07;98825.66;;;5.55;99.53
57885;BME280;43703;51.060;-0.086;2024-02-26T07:33:32;98828.77;;;5.80;98.42
57885;BME280;43703;51.060;-0.086;2024-02-26T07:35:57;98839.29;;;5.87;97.86
57885;BME280;43703;51.060;-0.086;2024-02-26T07:38:22;98842.74;;;5.51;97.21
57885;BME280;43703;51.060;-0.086;2024-02-26T07:40:47;98853.15;;;5.74;98.03
57885;BME280;43703;51.060;-0.086;2024-02-26T07:43:12;98860.79;;;5.58;99.71
57885;BME280;43703;51.060;-0.086;2024-02-26T07:45:37;98881.19;;;5.64;100.00
57885;BME280;43703;51.060;-0.086;2024-02-26T07:48:03;98882.88;;;5.74;96.82
57885;BME280;43703;51.060;-0.086;2024-02-26T07:50:28;98879.73;;;5.49;95.12
57885;BME280;43703;51.060;-0.086;2024-02-26T07:52:53;98885.50;;;5.88;99.60
57885;BME280;43703;51.060;-0.086;2024-02-26T07:55:18;98884.12;;;5.57;100.00
57885;BME280;43703;51.060;-0.086;2024-02-26T07:57:43;98883.64;;;5.84;92.77
57885;BME280;43703;51.060;-0.086;2024-02-26T08:00:09;98882.88;;;5.43;93.41
57885;BME280;43703;51.060;-0.086;2024-02-26T08:02:33;98886.00;;;5.47;93.53
57885;BME280;43703;51.060;-0.086;2024-02-26T08:04:58;98900.17;;;5.37;95.45
57885;BME280;43703;51.060;-0.086;2024-02-26T08:07:23;98906.54;;;5.24;94.81
57885;BME280;43703;51.060;-0.086;2024-02-26T08:09:48;98919.46;;;5.07;96.00
57885;BME280;43703;51.060;-0.086;2024-02-26T08:12:13;98913.27;;;5.04;95.66
57885;BME280;43703;51.060;-0.086;2024-02-26T08:14:38;98924.23;;;5.45;96.86
57885;BME280;43703;51.060;-0.086;2024-02-26T08:17:03;98920.64;;;5.39;93.75
57885;BME280;43703;51.060;-0.086;2024-02-26T08:19:28;98936.45;;;5.83;100.00
57885;BME280;43703;51.060;-0.086;2024-02-26T08:21:53;98944.62;;;5.57;95.98
57885;BME280;43703;51.060;-0.086;2024-02-26T08:24:18;98965.44;;;5.58;96.73
57885;BME280;43703;51.060;-0.086;2024-02-26T08:26:43;98955.39;;;6.11;95.37
57885;BME280;43703;51.060;-0.086;2024-02-26T08:29:08;98959.81;;;5.80;94.47
57885;BME280;43703;51.060;-0.086;2024-02-26T08:31:33;98969.16;;;6.01;100.00
57885;BME280;43703;51.060;-0.086;2024-02-26T08:33:58;98958.77;;;6.08;91.01
57885;BME280;43703;51.060;-0.086;2024-02-26T08:36:23;98974.95;;;5.89;95.22
57885;BME280;43703;51.060;-0.086;2024-02-26T08:38:49;98975.59;;;5.56;87.75
57885;BME280;43703;51.060;-0.086;2024-02-26T08:41:14;98994.12;;;5.86;92.88
57885;BME280;43703;51.060;-0.086;2024-02-26T08:43:39;98989.28;;;5.62;95.84
57885;BME280;43703;51.060;-0.086;2024-02-26T08:46:08;98997.28;;;5.96;95.06
57885;BME280;43703;51.060;-0.086;2024-02-26T08:48:30;99009.42;;;6.06;90.56
57885;BME280;43703;51.060;-0.086;2024-02-26T08:50:54;99009.98;;;6.12;95.19
57885;BME280;43703;51.060;-0.086;2024-02-26T08:53:20;99006.31;;;5.85;92.43
57885;BME280;43703;51.060;-0.086;2024-02-26T08:55:45;99008.99;;;5.99;90.71
57885;BME280;43703;51.060;-0.086;2024-02-26T08:58:10;99027.51;;;5.73;96.37
57885;BME280;43703;51.060;-0.086;2024-02-26T09:00:35;99020.61;;;5.60;95.39
57885;BME280;43703;51.060;-0.086;2024-02-26T09:03:00;99022.38;;;5.16;92.83
57885;BME280;43703;51.060;-0.086;2024-02-26T09:05:25;99037.61;;;5.62;92.80
57885;BME280;43703;51.060;-0.086;2024-02-26T09:07:50;99036.53;;;5.96;92.94
57885;BME280;43703;51.060;-0.086;2024-02-26T09:10:15;99036.22;;;5.68;91.64
57885;BME280;43703;51.060;-0.086;2024-02-26T09:12:40;99059.40;;;5.53;89.57
57885;BME280;43703;51.060;-0.086;2024-02-26T09:15:06;99044.37;;;5.65;97.69
57885;BME280;43703;51.060;-0.086;2024-02-26T09:17:30;99046.83;;;5.73;89.18
57885;BME280;43703;51.060;-0.086;2024-02-26T09:19:55;99056.99;;;5.85;94.62
57885;BME280;43703;51.060;-0.086;2024-02-26T09:22:20;99069.86;;;5.95;89.38
57885;BME280;43703;51.060;-0.086;2024-02-26T09:24:45;99077.34;;;5.99;87.00
57885;BME280;43703;51.060;-0.086;2024-02-26T09:27:10;99084.19;;;5.94;89.27
57885;BME280;43703;51.060;-0.086;2024-02-26T09:29:36;99081.22;;;5.77;89.68
57885;BME280;43703;51.060;-0.086;2024-02-26T09:32:01;99090.48;;;5.35;89.03
57885;BME280;43703;51.060;-0.086;2024-02-26T09:34:26;99105.36;;;5.68;88.30
57885;BME280;43703;51.060;-0.086;2024-02-26T09:36:51;99106.00;;;5.90;93.23
57885;BME280;43703;51.060;-0.086;2024-02-26T09:39:16;99110.80;;;5.72;90.01
57885;BME280;43703;51.060;-0.086;2024-02-26T09:41:41;99118.35;;;5.78;88.18
57885;BME280;43703;51.060;-0.086;2024-02-26T09:44:06;99112.27;;;5.80;91.80
57885;BME280;43703;51.060;-0.086;2024-02-26T09:46:33;99115.57;;;5.36;91.72
57885;BME280;43703;51.060;-0.086;2024-02-26T09:48:56;99126.87;;;5.90;99.73
57885;BME280;43703;51.060;-0.086;2024-02-26T09:51:23;99129.01;;;6.07;97.15
57885;BME280;43703;51.060;-0.086;2024-02-26T09:53:47;99132.49;;;6.13;89.70
57885;BME280;43703;51.060;-0.086;2024-02-26T09:56:11;99146.54;;;6.16;85.86
57885;BME280;43703;51.060;-0.086;2024-02-26T09:58:37;99147.93;;;6.51;86.30
57885;BME280;43703;51.060;-0.086;2024-02-26T10:01:02;99153.42;;;6.68;87.82
57885;BME280;43703;51.060;-0.086;2024-02-26T10:03:30;99164.78;;;6.91;94.68
57885;BME280;43703;51.060;-0.086;2024-02-26T10:05:51;99168.88;;;7.05;99.15
57885;BME280;43703;51.060;-0.086;2024-02-26T10:08:17;99172.21;;;6.95;92.87
57885;BME280;43703;51.060;-0.086;2024-02-26T10:10:41;99193.93;;;6.85;81.93
57885;BME280;43703;51.060;-0.086;2024-02-26T10:13:07;99192.02;;;6.78;90.13
57885;BME280;43703;51.060;-0.086;2024-02-26T10:15:31;99202.29;;;6.76;86.90
57885;BME280;43703;51.060;-0.086;2024-02-26T10:17:56;99189.42;;;6.20;88.89
57885;BME280;43703;51.060;-0.086;2024-02-26T10:20:22;99205.23;;;6.48;88.27
57885;BME280;43703;51.060;-0.086;2024-02-26T10:22:47;99209.41;;;6.60;92.77
57885;BME280;43703;51.060;-0.086;2024-02-26T10:25:12;99214.29;;;6.76;89.16
57885;BME280;43703;51.060;-0.086;2024-02-26T10:27:37;99206.58;;;6.83;87.33
57885;BME280;43703;51.060;-0.086;2024-02-26T10:30:03;99223.58;;;6.62;84.70
57885;BME280;43703;51.060;-0.086;2024-02-26T10:32:27;99231.29;;;6.90;94.02
57885;BME280;43703;51.060;-0.086;2024-02-26T10:34:55;99238.89;;;6.85;86.55
57885;BME280;43703;51.060;-0.086;2024-02-26T10:37:17;99248.31;;;6.69;86.36
57885;BME280;43703;51.060;-0.086;2024-02-26T10:39:47;99256.57;;;6.94;92.32
57885;BME280;43703;51.060;-0.086;2024-02-26T10:42:12;99263.08;;;7.12;94.81
57885;BME280;43703;51.060;-0.086;2024-02-26T10:44:34;99263.32;;;6.80;83.14
57885;BME280;43703;51.060;-0.086;2024-02-26T10:46:59;99253.85;;;6.63;83.27
57885;BME280;43703;51.060;-0.086;2024-02-26T10:49:24;99274.69;;;7.25;89.78
57885;BME280;43703;51.060;-0.086;2024-02-26T10:51:55;99278.53;;;6.94;92.72
57885;BME280;43703;51.060;-0.086;2024-02-26T10:54:16;99280.11;;;7.46;90.04
57885;BME280;43703;51.060;-0.086;2024-02-26T10:56:41;99280.97;;;7.06;85.80
57885;BME280;43703;51.060;-0.086;2024-02-26T10:59:07;99290.53;;;7.02;92.51
57885;BME280;43703;51.060;-0.086;2024-02-26T11:01:30;99294.07;;;7.29;91.13
57885;BME280;43703;51.060;-0.086;2024-02-26T11:03:55;99297.81;;;7.33;84.45
57885;BME280;43703;51.060;-0.086;2024-02-26T11:06:21;99318.80;;;7.24;86.27
57885;BME280;43703;51.060;-0.086;2024-02-26T11:08:48;99300.41;;;7.13;80.94
57885;BME280;43703;51.060;-0.086;2024-02-26T11:11:10;99317.26;;;7.01;86.13
57885;BME280;43703;51.060;-0.086;2024-02-26T11:13:36;99330.91;;;7.15;84.56
57885;BME280;43703;51.060;-0.086;2024-02-26T11:16:01;99322.27;;;7.27;82.37
57885;BME280;43703;51.060;-0.086;2024-02-26T11:18:27;99325.36;;;7.65;82.50
57885;BME280;43703;51.060;-0.086;2024-02-26T11:20:54;99336.72;;;8.01;83.47
57885;BME280;43703;51.060;-0.086;2024-02-26T11:23:16;99329.48;;;7.33;80.40
57885;BME280;43703;51.060;-0.086;2024-02-26T11:25:41;99348.48;;;7.44;100.00
57885;BME280;43703;51.060;-0.086;2024-02-26T11:28:12;99360.38;;;7.57;89.30
57885;BME280;43703;51.060;-0.086;2024-02-26T11:30:36;99366.25;;;7.39;76.98
57885;BME280;43703;51.060;-0.086;2024-02-26T11:32:56;99365.27;;;7.62;88.01
57885;BME280;43703;51.060;-0.086;2024-02-26T11:35:22;99354.07;;;7.78;83.07
57885;BME280;43703;51.060;-0.086;2024-02-26T11:37:52;99373.81;;;7.51;95.65
57885;BME280;43703;51.060;-0.086;2024-02-26T11:40:13;99374.01;;;7.82;83.58
57885;BME280;43703;51.060;-0.086;2024-02-26T11:42:43;99383.24;;;7.89;85.72
57885;BME280;43703;51.060;-0.086;2024-02-26T11:45:04;99395.29;;;7.71;92.63
57885;BME280;43703;51.060;-0.086;2024-02-26T11:47:28;99400.14;;;7.70;95.61
57885;BME280;43703;51.060;-0.086;2024-02-26T11:49:53;99418.27;;;7.74;89.59
57885;BME280;43703;51.060;-0.086;2024-02-26T11:52:19;99418.59;;;7.98;92.08
57885;BME280;43703;51.060;-0.086;2024-02-26T11:54:45;99414.63;;;8.32;97.90
57885;BME280;43703;51.060;-0.086;2024-02-26T11:59:38;99418.76;;;8.00;100.00
57885;BME280;43703;51.060;-0.086;2024-02-26T12:02:00;99430.39;;;8.05;94.26
57885;BME280;43703;51.060;-0.086;2024-02-26T12:04:27;99406.07;;;7.88;84.32
57885;BME280;43703;51.060;-0.086;2024-02-26T12:06:54;99433.97;;;7.98;81.25
57885;BME280;43703;51.060;-0.086;2024-02-26T12:11:45;99428.42;;;7.95;86.47
57885;BME280;43703;51.060;-0.086;2024-02-26T12:14:09;99443.01;;;7.77;89.22
57885;BME280;43703;51.060;-0.086;2024-02-26T12:16:35;99440.28;;;8.26;95.34
57885;BME280;43703;51.060;-0.086;2024-02-26T12:18:59;99451.15;;;7.32;90.43
57885;BME280;43703;51.060;-0.086;2024-02-26T12:21:24;99467.34;;;7.41;94.69
57885;BME280;43703;51.060;-0.086;2024-02-26T12:23:50;99483.54;;;6.98;91.50
57885;BME280;43703;51.060;-0.086;2024-02-26T12:26:15;99491.59;;;6.89;96.39
57885;BME280;43703;51.060;-0.086;2024-02-26T12:28:41;99482.24;;;6.40;100.00
57885;BME280;43703;51.060;-0.086;2024-02-26T12:31:06;99482.99;;;6.65;100.00
57885;BME280;43703;51.060;-0.086;2024-02-26T12:33:32;99471.55;;;6.87;99.42
57885;BME280;43703;51.060;-0.086;2024-02-26T12:35:56;99484.64;;;7.55;100.00
57885;BME280;43703;51.060;-0.086;2024-02-26T12:38:21;99487.61;;;7.40;93.17
57885;BME280;43703;51.060;-0.086;2024-02-26T12:40:47;99497.84;;;7.57;95.07
57885;BME280;43703;51.060;-0.086;2024-02-26T12:43:12;99472.95;;;7.27;98.00
57885;BME280;43703;51.060;-0.086;2024-02-26T12:45:40;99490.68;;;7.37;95.47
57885;BME280;43703;51.060;-0.086;2024-02-26T12:48:05;99486.26;;;7.34;89.59